sensor_id;sensor_type;location;lat;lon;timestamp;P1;durP1;ratioP1;P2;durP2;ratioP2
10293;SDS011;5192;50.328;7.610;2023-02-08T00:01:11;10.40;;;7.37;;
10293;SDS011;5192;50.328;7.610;2023-02-08T00:03:43;10.80;;;7.90;;
10293;SDS011;5192;50.328;7.610;2023-02-08T00:06:10;13.83;;;7.43;;
10293;SDS011;5192;50.328;7.610;2023-02-08T00:08:38;11.50;;;7.87;;
10293;SDS011;5192;50.328;7.610;2023-02-08T00:11:06;13.30;;;7.70;;
10293;SDS011;5192;50.328;7.610;2023-02-08T00:13:35;12.30;;;7.80;;
10293;SDS011;5192;50.328;7.610;2023-02-08T00:16:03;14.63;;;8.13;;
10293;SDS011;5192;50.328;7.610;2023-02-08T00:18:31;9.27;;;7.13;;
10293;SDS011;5192;50.328;7.610;2023-02-08T00:20:58;10.37;;;7.17;;
10293;SDS011;5192;50.328;7.610;2023-02-08T00:23:25;12.17;;;7.33;;
10293;SDS011;5192;50.328;7.610;2023-02-08T00:25:51;10.80;;;7.73;;
10293;SDS011;5192;50.328;7.610;2023-02-08T00:28:18;12.70;;;8.00;;
10293;SDS011;5192;50.328;7.610;2023-02-08T00:30:45;10.87;;;7.97;;
10293;SDS011;5192;50.328;7.610;2023-02-08T00:33:11;11.50;;;8.20;;
10293;SDS011;5192;50.328;7.610;2023-02-08T00:35:38;11.27;;;8.03;;
10293;SDS011;5192;50.328;7.610;2023-02-08T00:38:08;11.03;;;7.70;;
10293;SDS011;5192;50.328;7.610;2023-02-08T00:40:34;11.13;;;7.37;;
10293;SDS011;5192;50.328;7.610;2023-02-08T00:43:00;12.43;;;7.83;;
10293;SDS011;5192;50.328;7.610;2023-02-08T00:45:28;12.00;;;8.17;;
10293;SDS011;5192;50.328;7.610;2023-02-08T00:47:57;12.13;;;7.60;;
10293;SDS011;5192;50.328;7.610;2023-02-08T00:50:24;14.10;;;8.53;;
10293;SDS011;5192;50.328;7.610;2023-02-08T00:52:51;12.03;;;8.30;;
10293;SDS011;5192;50.328;7.610;2023-02-08T00:55:19;11.33;;;7.90;;
10293;SDS011;5192;50.328;7.610;2023-02-08T00:57:46;12.80;;;8.30;;
10293;SDS011;5192;50.328;7.610;2023-02-08T01:00:13;11.67;;;7.93;;
10293;SDS011;5192;50.328;7.610;2023-02-08T01:02:41;12.37;;;8.40;;
10293;SDS011;5192;50.328;7.610;2023-02-08T01:05:09;13.17;;;8.63;;
10293;SDS011;5192;50.328;7.610;2023-02-08T01:07:37;14.50;;;8.30;;
10293;SDS011;5192;50.328;7.610;2023-02-08T01:10:04;13.17;;;8.67;;
10293;SDS011;5192;50.328;7.610;2023-02-08T01:12:37;12.73;;;7.90;;
10293;SDS011;5192;50.328;7.610;2023-02-08T01:15:05;13.90;;;8.50;;
10293;SDS011;5192;50.328;7.610;2023-02-08T01:17:36;11.53;;;7.43;;
10293;SDS011;5192;50.328;7.610;2023-02-08T01:20:03;12.70;;;8.80;;
10293;SDS011;5192;50.328;7.610;2023-02-08T01:22:30;14.90;;;9.30;;
10293;SDS011;5192;50.328;7.610;2023-02-08T01:24:56;13.40;;;8.77;;
10293;SDS011;5192;50.328;7.610;2023-02-08T01:27:26;13.30;;;8.40;;
10293;SDS011;5192;50.328;7.610;2023-02-08T01:29:53;12.00;;;7.87;;
10293;SDS011;5192;50.328;7.610;2023-02-08T01:32:18;12.37;;;7.93;;
10293;SDS011;5192;50.328;7.610;2023-02-08T01:34:44;11.63;;;7.53;;
10293;SDS011;5192;50.328;7.610;2023-02-08T01:37:13;13.27;;;8.50;;
10293;SDS011;5192;50.328;7.610;2023-02-08T01:39:40;12.17;;;7.43;;
10293;SDS011;5192;50.328;7.610;2023-02-08T01:42:09;10.60;;;7.67;;
10293;SDS011;5192;50.328;7.610;2023-02-08T01:47:46;12.70;;;7.50;;
10293;SDS011;5192;50.328;7.610;2023-02-08T01:50:18;12.80;;;7.70;;
10293;SDS011;5192;50.328;7.610;2023-02-08T01:52:51;13.87;;;7.77;;
10293;SDS011;5192;50.328;7.610;2023-02-08T01:55:20;11.57;;;8.07;;
10293;SDS011;5192;50.328;7.610;2023-02-08T01:57:52;15.87;;;8.27;;
10293;SDS011;5192;50.328;7.610;2023-02-08T02:00:22;12.07;;;7.47;;
10293;SDS011;5192;50.328;7.610;2023-02-08T02:02:49;11.83;;;7.90;;
10293;SDS011;5192;50.328;7.610;2023-02-08T02:05:22;12.83;;;7.87;;
10293;SDS011;5192;50.328;7.610;2023-02-08T02:07:53;12.10;;;7.47;;
10293;SDS011;5192;50.328;7.610;2023-02-08T02:13:10;11.70;;;6.73;;
10293;SDS011;5192;50.328;7.610;2023-02-08T02:15:59;11.70;;;7.87;;
10293;SDS011;5192;50.328;7.610;2023-02-08T02:18:28;13.27;;;7.60;;
10293;SDS011;5192;50.328;7.610;2023-02-08T02:21:00;13.30;;;7.77;;
10293;SDS011;5192;50.328;7.610;2023-02-08T02:24:12;11.27;;;7.27;;
10293;SDS011;5192;50.328;7.610;2023-02-08T02:38:40;12.80;;;7.73;;
10293;SDS011;5192;50.328;7.610;2023-02-08T02:41:56;12.27;;;7.93;;
10293;SDS011;5192;50.328;7.610;2023-02-08T02:48:00;12.57;;;7.53;;
10293;SDS011;5192;50.328;7.610;2023-02-08T02:51:05;11.63;;;7.60;;
10293;SDS011;5192;50.328;7.610;2023-02-08T02:54:28;13.50;;;7.80;;
10293;SDS011;5192;50.328;7.610;2023-02-08T02:57:05;14.30;;;8.00;;
10293;SDS011;5192;50.328;7.610;2023-02-08T02:59:35;11.43;;;7.57;;
10293;SDS011;5192;50.328;7.610;2023-02-08T03:02:03;12.20;;;8.37;;
10293;SDS011;5192;50.328;7.610;2023-02-08T03:13:21;15.17;;;8.83;;
10293;SDS011;5192;50.328;7.610;2023-02-08T03:22:11;13.27;;;8.00;;
10293;SDS011;5192;50.328;7.610;2023-02-08T03:24:51;12.63;;;8.00;;
10293;SDS011;5192;50.328;7.610;2023-02-08T03:27:55;15.90;;;8.47;;
10293;SDS011;5192;50.328;7.610;2023-02-08T03:30:49;13.03;;;8.30;;
10293;SDS011;5192;50.328;7.610;2023-02-08T03:33:34;16.70;;;8.13;;
10293;SDS011;5192;50.328;7.610;2023-02-08T03:36:23;13.97;;;8.47;;
10293;SDS011;5192;50.328;7.610;2023-02-08T03:39:05;12.30;;;8.93;;
10293;SDS011;5192;50.328;7.610;2023-02-08T03:41:39;12.07;;;7.70;;
10293;SDS011;5192;50.328;7.610;2023-02-08T03:44:10;12.57;;;8.10;;
10293;SDS011;5192;50.328;7.610;2023-02-08T03:46:43;13.10;;;8.43;;
10293;SDS011;5192;50.328;7.610;2023-02-08T03:49:16;12.07;;;7.63;;
10293;SDS011;5192;50.328;7.610;2023-02-08T03:51:51;14.33;;;8.27;;
10293;SDS011;5192;50.328;7.610;2023-02-08T03:54:24;10.40;;;7.60;;
10293;SDS011;5192;50.328;7.610;2023-02-08T03:57:01;12.73;;;8.57;;
10293;SDS011;5192;50.328;7.610;2023-02-08T03:59:40;11.10;;;7.30;;
10293;SDS011;5192;50.328;7.610;2023-02-08T04:02:13;14.47;;;8.73;;
10293;SDS011;5192;50.328;7.610;2023-02-08T04:04:45;13.90;;;8.17;;
10293;SDS011;5192;50.328;7.610;2023-02-08T04:07:15;13.87;;;8.50;;
10293;SDS011;5192;50.328;7.610;2023-02-08T04:09:44;14.27;;;8.47;;
10293;SDS011;5192;50.328;7.610;2023-02-08T04:12:11;15.37;;;8.37;;
10293;SDS011;5192;50.328;7.610;2023-02-08T04:14:37;13.43;;;8.23;;
10293;SDS011;5192;50.328;7.610;2023-02-08T04:17:05;14.67;;;8.67;;
10293;SDS011;5192;50.328;7.610;2023-02-08T04:19:32;12.63;;;8.33;;
10293;SDS011;5192;50.328;7.610;2023-02-08T04:21:59;13.63;;;9.03;;
10293;SDS011;5192;50.328;7.610;2023-02-08T04:24:25;14.30;;;9.27;;
10293;SDS011;5192;50.328;7.610;2023-02-08T04:26:53;15.50;;;9.17;;
10293;SDS011;5192;50.328;7.610;2023-02-08T04:29:21;15.17;;;8.93;;
10293;SDS011;5192;50.328;7.610;2023-02-08T04:31:48;15.97;;;9.63;;
10293;SDS011;5192;50.328;7.610;2023-02-08T04:34:14;16.57;;;9.70;;
10293;SDS011;5192;50.328;7.610;2023-02-08T04:36:41;17.27;;;10.10;;
10293;SDS011;5192;50.328;7.610;2023-02-08T04:39:08;12.43;;;8.83;;
10293;SDS011;5192;50.328;7.610;2023-02-08T04:41:36;18.17;;;9.97;;
10293;SDS011;5192;50.328;7.610;2023-02-08T04:44:04;15.33;;;10.37;;
10293;SDS011;5192;50.328;7.610;2023-02-08T04:46:30;14.53;;;9.50;;
10293;SDS011;5192;50.328;7.610;2023-02-08T04:48:56;17.13;;;9.40;;
10293;SDS011;5192;50.328;7.610;2023-02-08T04:51:24;18.47;;;11.07;;
10293;SDS011;5192;50.328;7.610;2023-02-08T04:53:51;15.07;;;10.67;;
10293;SDS011;5192;50.328;7.610;2023-02-08T04:56:19;16.70;;;11.10;;
10293;SDS011;5192;50.328;7.610;2023-02-08T04:58:48;16.50;;;10.17;;
10293;SDS011;5192;50.328;7.610;2023-02-08T05:01:16;15.90;;;10.47;;
10293;SDS011;5192;50.328;7.610;2023-02-08T05:03:42;16.77;;;10.13;;
10293;SDS011;5192;50.328;7.610;2023-02-08T05:06:11;17.13;;;10.80;;
10293;SDS011;5192;50.328;7.610;2023-02-08T05:08:39;15.87;;;9.20;;
10293;SDS011;5192;50.328;7.610;2023-02-08T05:11:07;13.37;;;9.07;;
10293;SDS011;5192;50.328;7.610;2023-02-08T05:13:34;16.03;;;9.10;;
10293;SDS011;5192;50.328;7.610;2023-02-08T05:16:02;12.53;;;8.10;;
10293;SDS011;5192;50.328;7.610;2023-02-08T05:18:30;14.10;;;7.63;;
10293;SDS011;5192;50.328;7.610;2023-02-08T05:20:57;11.97;;;7.40;;
10293;SDS011;5192;50.328;7.610;2023-02-08T05:23:25;11.67;;;8.20;;
10293;SDS011;5192;50.328;7.610;2023-02-08T05:25:52;11.47;;;7.20;;
10293;SDS011;5192;50.328;7.610;2023-02-08T05:28:20;12.33;;;8.13;;
10293;SDS011;5192;50.328;7.610;2023-02-08T05:30:47;19.10;;;11.00;;
10293;SDS011;5192;50.328;7.610;2023-02-08T05:33:19;16.20;;;10.17;;
10293;SDS011;5192;50.328;7.610;2023-02-08T05:35:46;14.77;;;9.10;;
10293;SDS011;5192;50.328;7.610;2023-02-08T05:38:13;15.00;;;9.80;;
10293;SDS011;5192;50.328;7.610;2023-02-08T05:40:41;15.67;;;9.73;;
10293;SDS011;5192;50.328;7.610;2023-02-08T05:43:07;15.20;;;9.47;;
10293;SDS011;5192;50.328;7.610;2023-02-08T05:45:35;14.27;;;9.63;;
10293;SDS011;5192;50.328;7.610;2023-02-08T05:48:02;15.23;;;9.33;;
10293;SDS011;5192;50.328;7.610;2023-02-08T05:50:30;14.27;;;9.97;;
10293;SDS011;5192;50.328;7.610;2023-02-08T05:52:57;16.53;;;9.77;;
10293;SDS011;5192;50.328;7.610;2023-02-08T05:55:24;13.77;;;9.30;;
10293;SDS011;5192;50.328;7.610;2023-02-08T05:57:53;15.10;;;9.30;;
10293;SDS011;5192;50.328;7.610;2023-02-08T06:00:19;14.00;;;9.30;;
10293;SDS011;5192;50.328;7.610;2023-02-08T06:02:44;13.47;;;8.10;;
10293;SDS011;5192;50.328;7.610;2023-02-08T06:05:12;14.90;;;8.87;;
10293;SDS011;5192;50.328;7.610;2023-02-08T06:07:40;13.77;;;8.60;;
10293;SDS011;5192;50.328;7.610;2023-02-08T06:10:08;14.80;;;9.50;;
10293;SDS011;5192;50.328;7.610;2023-02-08T06:12:34;17.00;;;9.60;;
10293;SDS011;5192;50.328;7.610;2023-02-08T06:15:00;15.37;;;9.20;;
10293;SDS011;5192;50.328;7.610;2023-02-08T06:17:29;14.93;;;9.70;;
10293;SDS011;5192;50.328;7.610;2023-02-08T06:19:56;15.07;;;9.17;;
10293;SDS011;5192;50.328;7.610;2023-02-08T06:22:23;16.10;;;9.83;;
10293;SDS011;5192;50.328;7.610;2023-02-08T06:24:50;17.30;;;10.40;;
10293;SDS011;5192;50.328;7.610;2023-02-08T06:27:20;16.77;;;11.03;;
10293;SDS011;5192;50.328;7.610;2023-02-08T06:29:47;18.33;;;10.63;;
10293;SDS011;5192;50.328;7.610;2023-02-08T06:32:13;15.93;;;10.80;;
10293;SDS011;5192;50.328;7.610;2023-02-08T06:34:41;17.73;;;10.67;;
10293;SDS011;5192;50.328;7.610;2023-02-08T06:37:08;17.27;;;10.20;;
10293;SDS011;5192;50.328;7.610;2023-02-08T06:39:34;17.50;;;11.03;;
10293;SDS011;5192;50.328;7.610;2023-02-08T06:42:02;15.30;;;10.00;;
10293;SDS011;5192;50.328;7.610;2023-02-08T06:44:31;17.17;;;9.10;;
10293;SDS011;5192;50.328;7.610;2023-02-08T06:46:58;13.83;;;8.67;;
10293;SDS011;5192;50.328;7.610;2023-02-08T06:49:24;15.53;;;8.93;;
10293;SDS011;5192;50.328;7.610;2023-02-08T06:51:53;16.37;;;8.90;;
10293;SDS011;5192;50.328;7.610;2023-02-08T06:54:18;13.33;;;8.77;;
10293;SDS011;5192;50.328;7.610;2023-02-08T06:56:46;13.80;;;9.43;;
10293;SDS011;5192;50.328;7.610;2023-02-08T06:59:12;15.60;;;9.30;;
10293;SDS011;5192;50.328;7.610;2023-02-08T07:01:39;13.80;;;8.93;;
10293;SDS011;5192;50.328;7.610;2023-02-08T07:04:06;11.47;;;8.13;;
10293;SDS011;5192;50.328;7.610;2023-02-08T07:06:33;15.63;;;9.07;;
10293;SDS011;5192;50.328;7.610;2023-02-08T07:09:01;17.33;;;9.63;;
10293;SDS011;5192;50.328;7.610;2023-02-08T07:11:30;15.60;;;9.90;;
10293;SDS011;5192;50.328;7.610;2023-02-08T07:13:55;14.30;;;9.53;;
10293;SDS011;5192;50.328;7.610;2023-02-08T07:16:24;13.27;;;9.47;;
10293;SDS011;5192;50.328;7.610;2023-02-08T07:18:50;14.87;;;9.77;;
10293;SDS011;5192;50.328;7.610;2023-02-08T07:21:19;14.07;;;9.03;;
10293;SDS011;5192;50.328;7.610;2023-02-08T07:23:46;16.50;;;9.20;;
10293;SDS011;5192;50.328;7.610;2023-02-08T07:26:12;17.70;;;10.27;;
10293;SDS011;5192;50.328;7.610;2023-02-08T07:28:42;14.40;;;9.23;;
10293;SDS011;5192;50.328;7.610;2023-02-08T07:31:12;19.00;;;9.93;;
10293;SDS011;5192;50.328;7.610;2023-02-08T07:33:40;15.20;;;9.20;;
10293;SDS011;5192;50.328;7.610;2023-02-08T07:36:08;14.67;;;9.53;;
10293;SDS011;5192;50.328;7.610;2023-02-08T07:38:36;14.50;;;9.30;;
10293;SDS011;5192;50.328;7.610;2023-02-08T07:41:04;15.67;;;10.17;;
10293;SDS011;5192;50.328;7.610;2023-02-08T07:43:34;14.97;;;10.00;;
10293;SDS011;5192;50.328;7.610;2023-02-08T07:46:06;15.80;;;9.97;;
10293;SDS011;5192;50.328;7.610;2023-02-08T07:48:35;18.90;;;10.57;;
10293;SDS011;5192;50.328;7.610;2023-02-08T07:51:03;16.70;;;10.43;;
10293;SDS011;5192;50.328;7.610;2023-02-08T07:53:31;14.73;;;9.20;;
10293;SDS011;5192;50.328;7.610;2023-02-08T07:56:00;15.33;;;10.17;;
10293;SDS011;5192;50.328;7.610;2023-02-08T07:58:27;16.13;;;10.03;;
10293;SDS011;5192;50.328;7.610;2023-02-08T08:00:55;17.73;;;9.70;;
10293;SDS011;5192;50.328;7.610;2023-02-08T08:03:22;17.10;;;9.93;;
10293;SDS011;5192;50.328;7.610;2023-02-08T08:05:48;14.37;;;9.70;;
10293;SDS011;5192;50.328;7.610;2023-02-08T08:08:16;15.20;;;10.07;;
10293;SDS011;5192;50.328;7.610;2023-02-08T08:10:43;16.07;;;10.17;;
10293;SDS011;5192;50.328;7.610;2023-02-08T08:13:11;15.87;;;10.57;;
10293;SDS011;5192;50.328;7.610;2023-02-08T08:15:39;15.00;;;9.40;;
10293;SDS011;5192;50.328;7.610;2023-02-08T08:18:05;17.90;;;10.50;;
10293;SDS011;5192;50.328;7.610;2023-02-08T08:20:33;13.90;;;9.80;;
10293;SDS011;5192;50.328;7.610;2023-02-08T08:23:00;15.73;;;10.20;;
10293;SDS011;5192;50.328;7.610;2023-02-08T08:25:26;18.83;;;11.30;;
10293;SDS011;5192;50.328;7.610;2023-02-08T08:27:56;16.10;;;9.93;;
10293;SDS011;5192;50.328;7.610;2023-02-08T08:30:24;17.60;;;11.00;;
10293;SDS011;5192;50.328;7.610;2023-02-08T08:32:52;17.17;;;11.13;;
10293;SDS011;5192;50.328;7.610;2023-02-08T08:35:20;17.73;;;10.13;;
10293;SDS011;5192;50.328;7.610;2023-02-08T08:37:46;15.27;;;9.93;;
10293;SDS011;5192;50.328;7.610;2023-02-08T08:40:14;17.70;;;11.17;;
10293;SDS011;5192;50.328;7.610;2023-02-08T08:42:41;17.93;;;10.63;;
10293;SDS011;5192;50.328;7.610;2023-02-08T08:45:09;15.63;;;10.47;;
10293;SDS011;5192;50.328;7.610;2023-02-08T08:47:37;16.53;;;10.87;;
10293;SDS011;5192;50.328;7.610;2023-02-08T08:50:05;20.83;;;11.70;;
10293;SDS011;5192;50.328;7.610;2023-02-08T08:52:30;16.80;;;10.13;;
10293;SDS011;5192;50.328;7.610;2023-02-08T08:54:58;16.40;;;10.60;;
10293;SDS011;5192;50.328;7.610;2023-02-08T08:57:25;16.93;;;10.27;;
10293;SDS011;5192;50.328;7.610;2023-02-08T08:59:54;17.27;;;11.20;;
10293;SDS011;5192;50.328;7.610;2023-02-08T09:02:19;16.93;;;10.73;;
10293;SDS011;5192;50.328;7.610;2023-02-08T09:04:48;14.83;;;10.23;;
10293;SDS011;5192;50.328;7.610;2023-02-08T09:07:13;16.73;;;10.77;;
10293;SDS011;5192;50.328;7.610;2023-02-08T09:09:42;17.43;;;10.47;;
10293;SDS011;5192;50.328;7.610;2023-02-08T09:12:12;13.93;;;10.40;;
10293;SDS011;5192;50.328;7.610;2023-02-08T09:14:41;16.53;;;10.77;;
10293;SDS011;5192;50.328;7.610;2023-02-08T09:17:09;21.47;;;13.17;;
10293;SDS011;5192;50.328;7.610;2023-02-08T09:19:35;19.27;;;10.83;;
10293;SDS011;5192;50.328;7.610;2023-02-08T09:22:07;17.73;;;11.17;;
10293;SDS011;5192;50.328;7.610;2023-02-08T09:24:32;14.67;;;10.40;;
10293;SDS011;5192;50.328;7.610;2023-02-08T09:26:58;14.33;;;10.40;;
10293;SDS011;5192;50.328;7.610;2023-02-08T09:29:26;13.97;;;9.27;;
10293;SDS011;5192;50.328;7.610;2023-02-08T09:31:55;14.13;;;10.30;;
10293;SDS011;5192;50.328;7.610;2023-02-08T09:34:21;16.17;;;11.50;;
10293;SDS011;5192;50.328;7.610;2023-02-08T09:36:48;17.17;;;11.93;;
10293;SDS011;5192;50.328;7.610;2023-02-08T09:39:22;18.30;;;11.97;;
10293;SDS011;5192;50.328;7.610;2023-02-08T09:42:05;16.27;;;11.57;;
10293;SDS011;5192;50.328;7.610;2023-02-08T09:47:32;15.20;;;10.27;;
10293;SDS011;5192;50.328;7.610;2023-02-08T09:53:18;14.70;;;9.50;;
10293;SDS011;5192;50.328;7.610;2023-02-08T09:55:52;10.83;;;8.27;;
10293;SDS011;5192;50.328;7.610;2023-02-08T09:58:37;12.77;;;8.30;;
10293;SDS011;5192;50.328;7.610;2023-02-08T10:01:11;9.93;;;7.03;;
10293;SDS011;5192;50.328;7.610;2023-02-08T10:03:46;10.77;;;7.60;;
10293;SDS011;5192;50.328;7.610;2023-02-08T10:06:14;10.27;;;7.03;;
10293;SDS011;5192;50.328;7.610;2023-02-08T10:08:44;9.87;;;7.10;;
10293;SDS011;5192;50.328;7.610;2023-02-08T10:20:30;9.03;;;6.37;;
10293;SDS011;5192;50.328;7.610;2023-02-08T10:32:22;9.37;;;6.57;;
10293;SDS011;5192;50.328;7.610;2023-02-08T10:35:20;7.97;;;5.93;;
10293;SDS011;5192;50.328;7.610;2023-02-08T10:41:05;9.30;;;6.17;;
10293;SDS011;5192;50.328;7.610;2023-02-08T10:43:41;7.37;;;6.20;;
10293;SDS011;5192;50.328;7.610;2023-02-08T10:52:18;8.53;;;6.17;;
10293;SDS011;5192;50.328;7.610;2023-02-08T10:54:46;7.13;;;5.57;;
10293;SDS011;5192;50.328;7.610;2023-02-08T10:57:29;7.70;;;5.90;;
10293;SDS011;5192;50.328;7.610;2023-02-08T11:00:21;7.30;;;5.80;;
10293;SDS011;5192;50.328;7.610;2023-02-08T11:02:52;8.03;;;5.53;;
10293;SDS011;5192;50.328;7.610;2023-02-08T11:08:11;11.03;;;5.90;;
10293;SDS011;5192;50.328;7.610;2023-02-08T11:10:54;8.00;;;6.07;;
10293;SDS011;5192;50.328;7.610;2023-02-08T11:16:32;7.17;;;5.37;;
10293;SDS011;5192;50.328;7.610;2023-02-08T11:18:59;8.13;;;6.17;;
10293;SDS011;5192;50.328;7.610;2023-02-08T11:21:30;7.97;;;6.20;;
10293;SDS011;5192;50.328;7.610;2023-02-08T11:24:18;8.37;;;5.87;;
10293;SDS011;5192;50.328;7.610;2023-02-08T11:27:14;7.33;;;6.10;;
10293;SDS011;5192;50.328;7.610;2023-02-08T11:30:36;9.07;;;6.03;;
10293;SDS011;5192;50.328;7.610;2023-02-08T11:32:45;8.77;;;6.43;;
10293;SDS011;5192;50.328;7.610;2023-02-08T11:37:59;8.30;;;6.17;;
10293;SDS011;5192;50.328;7.610;2023-02-08T11:40:36;8.00;;;6.77;;
10293;SDS011;5192;50.328;7.610;2023-02-08T11:43:26;7.97;;;6.77;;
10293;SDS011;5192;50.328;7.610;2023-02-08T11:46:03;9.63;;;6.43;;
10293;SDS011;5192;50.328;7.610;2023-02-08T11:48:51;9.30;;;7.23;;
10293;SDS011;5192;50.328;7.610;2023-02-08T11:51:33;8.47;;;6.90;;
10293;SDS011;5192;50.328;7.610;2023-02-08T11:54:00;8.20;;;6.47;;
10293;SDS011;5192;50.328;7.610;2023-02-08T11:56:30;9.10;;;6.17;;
10293;SDS011;5192;50.328;7.610;2023-02-08T12:01:48;8.20;;;6.30;;
10293;SDS011;5192;50.328;7.610;2023-02-08T12:04:14;7.30;;;6.20;;
10293;SDS011;5192;50.328;7.610;2023-02-08T12:09:41;7.70;;;6.23;;
10293;SDS011;5192;50.328;7.610;2023-02-08T12:22:09;7.87;;;6.63;;
10293;SDS011;5192;50.328;7.610;2023-02-08T12:30:50;9.70;;;6.93;;
10293;SDS011;5192;50.328;7.610;2023-02-08T12:33:40;7.47;;;6.40;;
10293;SDS011;5192;50.328;7.610;2023-02-08T12:55:25;7.40;;;6.30;;
10293;SDS011;5192;50.328;7.610;2023-02-08T12:58:23;8.20;;;6.83;;
10293;SDS011;5192;50.328;7.610;2023-02-08T13:00:57;7.27;;;6.17;;
10293;SDS011;5192;50.328;7.610;2023-02-08T13:06:16;8.87;;;6.40;;
10293;SDS011;5192;50.328;7.610;2023-02-08T13:09:35;7.83;;;6.37;;
10293;SDS011;5192;50.328;7.610;2023-02-08T13:11:58;7.57;;;6.73;;
10293;SDS011;5192;50.328;7.610;2023-02-08T13:23:28;7.43;;;6.60;;
10293;SDS011;5192;50.328;7.610;2023-02-08T13:28:51;8.30;;;6.67;;
10293;SDS011;5192;50.328;7.610;2023-02-08T13:34:24;8.30;;;6.57;;
10293;SDS011;5192;50.328;7.610;2023-02-08T13:37:03;7.47;;;6.47;;
10293;SDS011;5192;50.328;7.610;2023-02-08T13:39:43;6.97;;;6.00;;
10293;SDS011;5192;50.328;7.610;2023-02-08T13:42:31;7.83;;;6.10;;
10293;SDS011;5192;50.328;7.610;2023-02-08T13:45:26;6.67;;;5.97;;
10293;SDS011;5192;50.328;7.610;2023-02-08T13:48:03;7.10;;;5.87;;
10293;SDS011;5192;50.328;7.610;2023-02-08T13:54:03;7.77;;;6.63;;
10293;SDS011;5192;50.328;7.610;2023-02-08T13:56:04;7.10;;;6.10;;
10293;SDS011;5192;50.328;7.610;2023-02-08T14:01:21;7.17;;;5.97;;
10293;SDS011;5192;50.328;7.610;2023-02-08T14:06:44;6.37;;;5.77;;
10293;SDS011;5192;50.328;7.610;2023-02-08T14:17:47;7.47;;;6.00;;
10293;SDS011;5192;50.328;7.610;2023-02-08T14:20:24;6.70;;;5.57;;
10293;SDS011;5192;50.328;7.610;2023-02-08T14:25:55;6.63;;;5.77;;
10293;SDS011;5192;50.328;7.610;2023-02-08T14:28:31;8.17;;;6.07;;
10293;SDS011;5192;50.328;7.610;2023-02-08T14:31:06;7.37;;;5.90;;
10293;SDS011;5192;50.328;7.610;2023-02-08T14:33:36;8.20;;;6.07;;
10293;SDS011;5192;50.328;7.610;2023-02-08T14:36:28;8.30;;;5.77;;
10293;SDS011;5192;50.328;7.610;2023-02-08T14:42:03;7.53;;;5.57;;
10293;SDS011;5192;50.328;7.610;2023-02-08T14:50:21;6.43;;;5.10;;
10293;SDS011;5192;50.328;7.610;2023-02-08T14:52:57;7.97;;;5.13;;
10293;SDS011;5192;50.328;7.610;2023-02-08T14:58:47;4.97;;;4.43;;
10293;SDS011;5192;50.328;7.610;2023-02-08T15:01:23;6.90;;;5.13;;
10293;SDS011;5192;50.328;7.610;2023-02-08T15:04:18;7.33;;;5.40;;
10293;SDS011;5192;50.328;7.610;2023-02-08T15:07:01;8.33;;;5.33;;
10293;SDS011;5192;50.328;7.610;2023-02-08T15:09:46;7.50;;;5.10;;
10293;SDS011;5192;50.328;7.610;2023-02-08T15:12:25;5.53;;;4.83;;
10293;SDS011;5192;50.328;7.610;2023-02-08T15:15:03;7.53;;;4.73;;
10293;SDS011;5192;50.328;7.610;2023-02-08T15:17:42;7.00;;;4.40;;
10293;SDS011;5192;50.328;7.610;2023-02-08T15:20:18;6.93;;;4.40;;
10293;SDS011;5192;50.328;7.610;2023-02-08T15:22:47;6.50;;;4.50;;
10293;SDS011;5192;50.328;7.610;2023-02-08T15:25:26;5.60;;;3.80;;
10293;SDS011;5192;50.328;7.610;2023-02-08T15:33:38;4.33;;;3.67;;
10293;SDS011;5192;50.328;7.610;2023-02-08T15:36:21;6.33;;;4.30;;
10293;SDS011;5192;50.328;7.610;2023-02-08T15:42:15;4.77;;;3.40;;
10293;SDS011;5192;50.328;7.610;2023-02-08T15:44:45;4.63;;;3.80;;
10293;SDS011;5192;50.328;7.610;2023-02-08T15:47:21;5.60;;;3.80;;
10293;SDS011;5192;50.328;7.610;2023-02-08T15:49:54;4.67;;;3.30;;
10293;SDS011;5192;50.328;7.610;2023-02-08T15:52:22;4.00;;;3.37;;
10293;SDS011;5192;50.328;7.610;2023-02-08T15:54:52;4.10;;;3.20;;
10293;SDS011;5192;50.328;7.610;2023-02-08T16:00:42;5.40;;;3.20;;
10293;SDS011;5192;50.328;7.610;2023-02-08T16:03:19;6.37;;;3.33;;
10293;SDS011;5192;50.328;7.610;2023-02-08T16:06:02;5.17;;;3.80;;
10293;SDS011;5192;50.328;7.610;2023-02-08T16:08:33;3.90;;;3.00;;
10293;SDS011;5192;50.328;7.610;2023-02-08T16:13:39;5.23;;;3.10;;
10293;SDS011;5192;50.328;7.610;2023-02-08T16:21:50;4.90;;;3.20;;
10293;SDS011;5192;50.328;7.610;2023-02-08T16:24:23;4.73;;;3.13;;
10293;SDS011;5192;50.328;7.610;2023-02-08T16:29:41;4.03;;;3.00;;
10293;SDS011;5192;50.328;7.610;2023-02-08T16:32:28;4.07;;;3.07;;
10293;SDS011;5192;50.328;7.610;2023-02-08T16:35:09;5.63;;;3.77;;
10293;SDS011;5192;50.328;7.610;2023-02-08T16:37:40;4.47;;;2.93;;
10293;SDS011;5192;50.328;7.610;2023-02-08T16:40:53;4.53;;;3.10;;
10293;SDS011;5192;50.328;7.610;2023-02-08T16:48:56;5.67;;;3.20;;
10293;SDS011;5192;50.328;7.610;2023-02-08T16:51:27;4.23;;;2.90;;
10293;SDS011;5192;50.328;7.610;2023-02-08T16:53:59;5.17;;;2.93;;
10293;SDS011;5192;50.328;7.610;2023-02-08T16:56:37;5.43;;;3.30;;
10293;SDS011;5192;50.328;7.610;2023-02-08T16:59:03;3.77;;;2.70;;
10293;SDS011;5192;50.328;7.610;2023-02-08T17:01:32;4.00;;;2.80;;
10293;SDS011;5192;50.328;7.610;2023-02-08T17:03:58;4.77;;;2.77;;
10293;SDS011;5192;50.328;7.610;2023-02-08T17:06:31;4.23;;;3.03;;
10293;SDS011;5192;50.328;7.610;2023-02-08T17:09:00;4.27;;;3.07;;
10293;SDS011;5192;50.328;7.610;2023-02-08T17:11:31;3.93;;;2.90;;
10293;SDS011;5192;50.328;7.610;2023-02-08T17:13:58;3.67;;;2.63;;
10293;SDS011;5192;50.328;7.610;2023-02-08T17:16:28;5.00;;;3.47;;
10293;SDS011;5192;50.328;7.610;2023-02-08T17:18:59;6.03;;;3.07;;
10293;SDS011;5192;50.328;7.610;2023-02-08T17:21:27;5.90;;;3.60;;
10293;SDS011;5192;50.328;7.610;2023-02-08T17:23:55;3.90;;;3.13;;
10293;SDS011;5192;50.328;7.610;2023-02-08T17:29:09;5.77;;;4.03;;
10293;SDS011;5192;50.328;7.610;2023-02-08T17:31:38;5.37;;;3.87;;
10293;SDS011;5192;50.328;7.610;2023-02-08T17:34:05;5.20;;;4.00;;
10293;SDS011;5192;50.328;7.610;2023-02-08T17:36:34;7.07;;;4.33;;
10293;SDS011;5192;50.328;7.610;2023-02-08T17:39:03;6.07;;;4.20;;
10293;SDS011;5192;50.328;7.610;2023-02-08T17:41:33;6.33;;;4.10;;
10293;SDS011;5192;50.328;7.610;2023-02-08T17:44:00;7.80;;;4.30;;
10293;SDS011;5192;50.328;7.610;2023-02-08T17:46:32;12.17;;;5.43;;
10293;SDS011;5192;50.328;7.610;2023-02-08T17:48:59;7.10;;;4.50;;
10293;SDS011;5192;50.328;7.610;2023-02-08T17:51:27;8.17;;;4.53;;
10293;SDS011;5192;50.328;7.610;2023-02-08T17:53:53;7.13;;;5.10;;
10293;SDS011;5192;50.328;7.610;2023-02-08T17:56:25;6.07;;;4.50;;
10293;SDS011;5192;50.328;7.610;2023-02-08T17:59:00;6.80;;;4.30;;
10293;SDS011;5192;50.328;7.610;2023-02-08T18:01:32;6.60;;;4.77;;
10293;SDS011;5192;50.328;7.610;2023-02-08T18:03:57;6.50;;;4.77;;
10293;SDS011;5192;50.328;7.610;2023-02-08T18:06:27;6.97;;;4.67;;
10293;SDS011;5192;50.328;7.610;2023-02-08T18:08:53;6.90;;;4.70;;
10293;SDS011;5192;50.328;7.610;2023-02-08T18:11:20;6.23;;;4.53;;
10293;SDS011;5192;50.328;7.610;2023-02-08T18:13:49;8.47;;;4.60;;
10293;SDS011;5192;50.328;7.610;2023-02-08T18:16:20;8.20;;;5.50;;
10293;SDS011;5192;50.328;7.610;2023-02-08T18:18:48;7.93;;;5.00;;
10293;SDS011;5192;50.328;7.610;2023-02-08T18:21:16;7.67;;;4.93;;
10293;SDS011;5192;50.328;7.610;2023-02-08T18:23:48;7.50;;;4.80;;
10293;SDS011;5192;50.328;7.610;2023-02-08T18:26:20;6.70;;;4.73;;
10293;SDS011;5192;50.328;7.610;2023-02-08T18:28:49;6.50;;;4.53;;
10293;SDS011;5192;50.328;7.610;2023-02-08T18:31:21;6.63;;;4.63;;
10293;SDS011;5192;50.328;7.610;2023-02-08T18:33:49;9.53;;;5.20;;
10293;SDS011;5192;50.328;7.610;2023-02-08T18:36:18;7.63;;;5.40;;
10293;SDS011;5192;50.328;7.610;2023-02-08T18:38:46;7.10;;;4.70;;